Time;durP1;ratioP1;P1;durP2;ratioP2;P2;SDS_P1;SDS_P2;PMS_P1;PMS_P2;Temp;Humidity;BMP_temperature;BMP_pressure;BME280_temperature;BME280_humidity;BME280_pressure;Samples;Min_cycle;Max_cycle;Signal;HPM_P1;HPM_P2
2020/12/26 00:01:06;;;;;;;0.00;0.00;;;;;;;;;;4967649;28;20132;-62
2020/12/26 00:03:32;;;;;;;0.00;0.00;;;;;;;;;;4970139;28;20090;-62
2020/12/26 00:05:57;;;;;;;0.00;0.00;;;;;;;;;;4953018;28;20050;-62
2020/12/26 00:08:23;;;;;;;0.00;0.00;;;;;;;;;;4951308;28;20841;-63
2020/12/26 00:10:48;;;;;;;0.00;0.00;;;;;;;;;;4970403;28;20140;-63
2020/12/26 00:13:17;;;;;;;0.00;0.00;;;;;;;;;;4968614;28;20533;-62
2020/12/26 00:15:44;;;;;;;0.00;0.00;;;;;;;;;;4951683;28;20053;-62
2020/12/26 00:18:10;;;;;;;0.00;0.00;;;;;;;;;;4949415;28;20034;-61
2020/12/26 00:20:40;;;;;;;0.00;0.00;;;;;;;;;;4968101;28;20525;-62
2020/12/26 00:23:08;;;;;;;0.00;0.00;;;;;;;;;;4951201;28;20722;-63
2020/12/26 00:25:34;;;;;;;0.00;0.00;;;;;;;;;;4950646;28;20390;-62
2020/12/26 00:27:59;;;;;;;0.00;0.00;;;;;;;;;;4952444;28;20041;-64
2020/12/26 00:30:25;;;;;;;0.00;0.00;;;;;;;;;;4949362;28;20046;-61
2020/12/26 00:32:53;;;;;;;0.10;0.10;;;;;;;;;;4967777;28;20446;-63
2020/12/26 00:35:20;;;;;;;0.00;0.00;;;;;;;;;;4968593;28;20076;-63
2020/12/26 00:37:46;;;;;;;0.00;0.00;;;;;;;;;;4967619;28;20161;-63
2020/12/26 00:40:16;;;;;;;0.00;0.00;;;;;;;;;;4951355;28;20034;-63
2020/12/26 00:42:44;;;;;;;0.00;0.00;;;;;;;;;;4952337;28;20038;-62
2020/12/26 00:45:10;;;;;;;0.00;0.00;;;;;;;;;;4971207;28;20102;-63
2020/12/26 00:47:41;;;;;;;0.00;0.00;;;;;;;;;;4967004;28;20077;-62
2020/12/26 00:50:06;;;;;;;1.13;0.90;;;;;;;;;;4951078;28;20568;-63
2020/12/26 00:52:34;;;;;;;0.00;0.00;;;;;;;;;;4967223;28;20034;-63
2020/12/26 00:55:02;;;;;;;0.00;0.00;;;;;;;;;;4967929;28;20141;-63
2020/12/26 00:57:32;;;;;;;0.00;0.00;;;;;;;;;;4972254;28;20885;-62
2020/12/26 00:59:58;;;;;;;0.00;0.00;;;;;;;;;;4969727;28;20038;-63
2020/12/26 01:02:23;;;;;;;0.00;0.00;;;;;;;;;;4973517;28;20630;-62
2020/12/26 01:04:49;;;;;;;0.00;0.00;;;;;;;;;;4938173;28;20136;-62
2020/12/26 01:07:14;;;;;;;0.00;0.00;;;;;;;;;;4957408;28;20077;-61
2020/12/26 01:09:44;;;;;;;0.00;0.00;;;;;;;;;;4954789;28;20247;-62
2020/12/26 01:12:12;;;;;;;0.00;0.00;;;;;;;;;;4970166;28;20482;-63
2020/12/26 01:14:37;;;;;;;0.00;0.00;;;;;;;;;;4957952;28;20184;-62
2020/12/26 01:17:03;;;;;;;0.00;0.00;;;;;;;;;;4972135;28;20414;-63
2020/12/26 01:19:33;;;;;;;0.00;0.00;;;;;;;;;;4971941;28;20049;-63
2020/12/26 01:22:01;;;;;;;0.00;0.00;;;;;;;;;;4947304;28;20076;-62
2020/12/26 01:24:29;;;;;;;0.00;0.00;;;;;;;;;;4946111;28;20122;-62
2020/12/26 01:26:55;;;;;;;0.00;0.00;;;;;;;;;;4970452;28;20285;-62
2020/12/26 01:29:24;;;;;;;0.00;0.00;;;;;;;;;;4968478;28;20046;-62
2020/12/26 01:31:50;;;;;;;0.00;0.00;;;;;;;;;;4953430;28;20038;-63
2020/12/26 01:34:20;;;;;;;0.00;0.00;;;;;;;;;;4971013;28;20602;-62
2020/12/26 01:36:51;;;;;;;0.00;0.00;;;;;;;;;;4968962;28;20026;-62
2020/12/26 01:39:20;;;;;;;0.00;0.00;;;;;;;;;;4954812;28;21569;-63
2020/12/26 01:41:49;;;;;;;0.00;0.00;;;;;;;;;;4968423;28;20030;-63
2020/12/26 01:44:20;;;;;;;0.00;0.00;;;;;;;;;;4972039;28;20285;-63
2020/12/26 01:46:54;;;;;;;0.00;0.00;;;;;;;;;;4970096;28;20037;-63
2020/12/26 01:49:21;;;;;;;0.00;0.00;;;;;;;;;;4968847;28;21677;-62
2020/12/26 01:51:49;;;;;;;0.00;0.00;;;;;;;;;;4966705;28;21568;-63
2020/12/26 01:54:17;;;;;;;0.00;0.00;;;;;;;;;;4948203;28;20129;-62
2020/12/26 01:56:43;;;;;;;0.00;0.00;;;;;;;;;;4950808;28;21202;-62
2020/12/26 01:59:09;;;;;;;0.00;0.00;;;;;;;;;;4954420;28;20065;-63
2020/12/26 02:01:37;;;;;;;0.00;0.00;;;;;;;;;;4970760;28;20030;-63
2020/12/26 02:04:06;;;;;;;0.00;0.00;;;;;;;;;;4948476;28;22010;-61
2020/12/26 02:06:51;;;;;;;0.00;0.00;;;;;;;;;;4972540;28;20404;-63
2020/12/26 02:09:19;;;;;;;0.00;0.00;;;;;;;;;;4971014;28;20075;-62
2020/12/26 02:11:47;;;;;;;0.00;0.00;;;;;;;;;;4968899;28;20037;-62
2020/12/26 02:14:13;;;;;;;0.00;0.00;;;;;;;;;;4964514;28;20038;-62
2020/12/26 02:17:00;;;;;;;0.00;0.00;;;;;;;;;;4966503;28;20737;-62
2020/12/26 02:19:26;;;;;;;0.00;0.00;;;;;;;;;;4966193;28;20060;-62
2020/12/26 02:21:53;;;;;;;0.00;0.00;;;;;;;;;;4945473;28;20640;-62
2020/12/26 02:24:21;;;;;;;0.00;0.00;;;;;;;;;;4934532;28;22198;-62
2020/12/26 02:26:49;;;;;;;0.00;0.00;;;;;;;;;;4947655;28;20056;-62
2020/12/26 02:29:17;;;;;;;0.25;0.25;;;;;;;;;;4950390;28;20110;-63
2020/12/26 02:31:45;;;;;;;0.00;0.00;;;;;;;;;;4947455;28;20271;-62
2020/12/26 02:34:11;;;;;;;0.00;0.00;;;;;;;;;;4948376;28;20047;-64
2020/12/26 02:36:39;;;;;;;0.00;0.00;;;;;;;;;;4950993;28;21658;-62
2020/12/26 02:39:05;;;;;;;0.00;0.00;;;;;;;;;;4946787;28;22197;-63
2020/12/26 02:41:31;;;;;;;0.05;0.05;;;;;;;;;;4946185;28;20042;-62
2020/12/26 02:44:03;;;;;;;0.00;0.00;;;;;;;;;;4948937;28;20035;-62
2020/12/26 02:46:29;;;;;;;0.00;0.00;;;;;;;;;;4946966;28;20137;-62
2020/12/26 02:48:57;;;;;;;0.00;0.00;;;;;;;;;;4949325;28;20273;-62
2020/12/26 02:51:25;;;;;;;0.00;0.00;;;;;;;;;;4950859;28;20841;-62
2020/12/26 02:53:53;;;;;;;0.00;0.00;;;;;;;;;;4948497;28;20200;-62
2020/12/26 02:56:19;;;;;;;0.00;0.00;;;;;;;;;;4950202;28;20401;-63
2020/12/26 02:58:47;;;;;;;0.00;0.00;;;;;;;;;;4948260;28;20039;-62
2020/12/26 03:01:17;;;;;;;0.00;0.00;;;;;;;;;;4952291;28;20379;-63
2020/12/26 03:03:47;;;;;;;0.00;0.00;;;;;;;;;;4947507;28;20037;-63
2020/12/26 03:06:13;;;;;;;0.00;0.00;;;;;;;;;;4947812;28;20045;-62
2020/12/26 03:08:42;;;;;;;0.00;0.00;;;;;;;;;;4931867;28;20071;-62
2020/12/26 03:11:10;;;;;;;0.00;0.00;;;;;;;;;;4950441;28;20144;-62
2020/12/26 03:13:36;;;;;;;0.00;0.00;;;;;;;;;;4952295;28;20039;-62
2020/12/26 03:16:04;;;;;;;0.00;0.00;;;;;;;;;;4947106;28;20541;-63
2020/12/26 03:18:32;;;;;;;0.00;0.00;;;;;;;;;;4947564;28;20042;-62
2020/12/26 03:21:03;;;;;;;0.00;0.00;;;;;;;;;;4938887;28;20117;-61
2020/12/26 03:23:31;;;;;;;0.00;0.00;;;;;;;;;;4932470;28;20264;-62
2020/12/26 03:25:59;;;;;;;0.00;0.00;;;;;;;;;;4915268;28;20930;-61
2020/12/26 03:28:24;;;;;;;0.00;0.00;;;;;;;;;;4931235;28;20043;-61
2020/12/26 03:30:49;;;;;;;0.00;0.00;;;;;;;;;;4931121;28;20388;-63
2020/12/26 03:33:15;;;;;;;0.03;0.03;;;;;;;;;;4929445;28;20084;-63
2020/12/26 03:35:43;;;;;;;0.00;0.00;;;;;;;;;;4922343;28;20034;-61
2020/12/26 03:38:08;;;;;;;0.00;0.00;;;;;;;;;;4932074;28;20042;-61
2020/12/26 03:40:36;;;;;;;0.00;0.00;;;;;;;;;;4913932;28;20038;-62
2020/12/26 03:43:01;;;;;;;0.00;0.00;;;;;;;;;;4949486;28;20250;-63
2020/12/26 03:45:27;;;;;;;0.00;0.00;;;;;;;;;;4932587;28;20046;-62
2020/12/26 03:48:00;;;;;;;0.00;0.00;;;;;;;;;;4934010;28;20197;-62
2020/12/26 03:50:25;;;;;;;0.00;0.00;;;;;;;;;;4933363;28;20520;-62
2020/12/26 03:52:55;;;;;;;0.00;0.00;;;;;;;;;;4931573;28;21099;-61
2020/12/26 03:55:26;;;;;;;0.00;0.00;;;;;;;;;;4921101;28;20035;-61
2020/12/26 03:57:53;;;;;;;0.00;0.00;;;;;;;;;;4947432;28;20474;-62
2020/12/26 04:00:21;;;;;;;0.00;0.00;;;;;;;;;;4944543;28;20033;-61
2020/12/26 04:02:49;;;;;;;0.00;0.00;;;;;;;;;;4931079;28;20340;-61
2020/12/26 04:05:17;;;;;;;0.00;0.00;;;;;;;;;;4946299;28;20035;-61
2020/12/26 04:07:43;;;;;;;0.00;0.00;;;;;;;;;;4945128;28;20089;-62
2020/12/26 04:10:11;;;;;;;0.00;0.00;;;;;;;;;;4932072;28;20023;-63
2020/12/26 04:12:36;;;;;;;0.00;0.00;;;;;;;;;;4936194;28;20035;-62
2020/12/26 04:15:02;;;;;;;0.00;0.00;;;;;;;;;;4950518;28;20098;-61
2020/12/26 04:17:28;;;;;;;0.00;0.00;;;;;;;;;;4910417;28;20102;-61
2020/12/26 04:19:57;;;;;;;0.40;0.30;;;;;;;;;;4950214;28;20116;-61
2020/12/26 04:22:24;;;;;;;0.00;0.00;;;;;;;;;;4949210;28;20073;-61
2020/12/26 04:24:50;;;;;;;0.00;0.00;;;;;;;;;;4951701;28;20042;-61
2020/12/26 04:27:18;;;;;;;0.20;0.20;;;;;;;;;;4950351;28;20034;-61
2020/12/26 04:29:43;;;;;;;0.00;0.00;;;;;;;;;;4931259;28;20446;-62
2020/12/26 04:32:09;;;;;;;0.00;0.00;;;;;;;;;;4968085;28;20290;-61
2020/12/26 04:34:39;;;;;;;0.00;0.00;;;;;;;;;;4954584;28;20041;-62
2020/12/26 04:37:09;;;;;;;0.00;0.00;;;;;;;;;;4938566;28;20045;-61
2020/12/26 04:39:38;;;;;;;0.00;0.00;;;;;;;;;;4952005;28;20074;-62
2020/12/26 04:42:04;;;;;;;0.00;0.00;;;;;;;;;;4974211;28;20146;-61
2020/12/26 04:44:33;;;;;;;1.33;0.73;;;;;;;;;;4971744;28;20648;-62
2020/12/26 04:47:05;;;;;;;0.00;0.00;;;;;;;;;;4971132;28;20077;-62
2020/12/26 04:49:34;;;;;;;0.00;0.00;;;;;;;;;;4972281;28;20026;-62
2020/12/26 04:52:04;;;;;;;0.10;0.10;;;;;;;;;;4970420;28;20030;-63
2020/12/26 04:54:32;;;;;;;0.00;0.00;;;;;;;;;;4951483;28;20041;-63
2020/12/26 04:57:01;;;;;;;0.00;0.00;;;;;;;;;;4971672;28;20036;-61
2020/12/26 04:59:32;;;;;;;0.00;0.00;;;;;;;;;;4973847;28;20053;-61
2020/12/26 05:02:00;;;;;;;0.00;0.00;;;;;;;;;;4972128;28;20038;-62
2020/12/26 05:04:25;;;;;;;0.00;0.00;;;;;;;;;;4949977;28;20482;-62
2020/12/26 05:06:55;;;;;;;0.00;0.00;;;;;;;;;;4948585;28;20034;-62
2020/12/26 05:09:24;;;;;;;0.00;0.00;;;;;;;;;;4952864;28;20762;-63
2020/12/26 05:12:01;;;;;;;0.00;0.00;;;;;;;;;;4953358;28;20045;-61
2020/12/26 05:14:56;;;;;;;0.00;0.00;;;;;;;;;;4968337;28;20495;-61
2020/12/26 05:17:22;;;;;;;0.00;0.00;;;;;;;;;;4969333;28;20038;-63
2020/12/26 05:19:49;;;;;;;0.00;0.00;;;;;;;;;;4970128;28;20026;-62
2020/12/26 05:22:20;;;;;;;0.00;0.00;;;;;;;;;;4968413;28;20239;-62
2020/12/26 05:24:51;;;;;;;0.00;0.00;;;;;;;;;;4971056;28;20042;-63
2020/12/26 05:27:16;;;;;;;0.00;0.00;;;;;;;;;;4969118;28;20085;-62
2020/12/26 05:29:42;;;;;;;1.30;0.63;;;;;;;;;;4965767;28;20026;-63
2020/12/26 05:32:40;;;;;;;0.00;0.00;;;;;;;;;;4953636;28;20034;-63
2020/12/26 05:35:08;;;;;;;0.00;0.00;;;;;;;;;;4954415;28;20477;-61
2020/12/26 05:37:37;;;;;;;0.00;0.00;;;;;;;;;;4966845;28;20026;-63
2020/12/26 05:40:05;;;;;;;0.00;0.00;;;;;;;;;;4952153;28;20096;-62
2020/12/26 05:42:31;;;;;;;0.00;0.00;;;;;;;;;;4968755;28;20565;-61
2020/12/26 05:45:14;;;;;;;0.00;0.00;;;;;;;;;;4954883;28;20069;-62
2020/12/26 05:47:45;;;;;;;0.00;0.00;;;;;;;;;;4972389;28;20077;-62
2020/12/26 05:50:24;;;;;;;0.75;0.75;;;;;;;;;;4948638;28;20034;-63
2020/12/26 05:52:53;;;;;;;0.00;0.00;;;;;;;;;;4965928;28;20185;-62
2020/12/26 05:55:21;;;;;;;0.00;0.00;;;;;;;;;;4968992;28;20038;-62
2020/12/26 05:57:51;;;;;;;0.00;0.00;;;;;;;;;;4970762;28;20030;-62
2020/12/26 06:00:31;;;;;;;0.00;0.00;;;;;;;;;;4971648;28;20030;-62
2020/12/26 06:03:02;;;;;;;0.00;0.00;;;;;;;;;;4951369;28;20122;-62
2020/12/26 06:05:28;;;;;;;0.00;0.00;;;;;;;;;;4967267;28;20470;-61
2020/12/26 06:07:56;;;;;;;0.00;0.00;;;;;;;;;;4948531;28;20445;-62
2020/12/26 06:10:21;;;;;;;0.00;0.00;;;;;;;;;;4970500;28;20037;-62
2020/12/26 06:12:52;;;;;;;0.00;0.00;;;;;;;;;;4966031;28;20535;-62
2020/12/26 06:15:19;;;;;;;0.00;0.00;;;;;;;;;;4951256;28;20029;-62
2020/12/26 06:17:48;;;;;;;0.20;0.20;;;;;;;;;;4968063;28;21754;-63
2020/12/26 06:20:17;;;;;;;1.65;0.90;;;;;;;;;;4970668;28;20597;-63
2020/12/26 06:22:49;;;;;;;0.25;0.25;;;;;;;;;;4969740;28;20330;-62
2020/12/26 06:25:19;;;;;;;0.00;0.00;;;;;;;;;;4972478;28;20093;-63
2020/12/26 06:27:57;;;;;;;0.00;0.00;;;;;;;;;;4972026;28;20022;-61
2020/12/26 06:30:22;;;;;;;0.00;0.00;;;;;;;;;;4965285;28;20030;-61
2020/12/26 06:32:51;;;;;;;0.00;0.00;;;;;;;;;;4966100;28;20362;-62
2020/12/26 06:35:21;;;;;;;1.02;0.65;;;;;;;;;;4952663;28;20054;-62
2020/12/26 06:38:07;;;;;;;0.00;0.00;;;;;;;;;;4969818;28;20053;-62
2020/12/26 06:40:33;;;;;;;0.00;0.00;;;;;;;;;;4964766;28;20089;-62
2020/12/26 06:43:00;;;;;;;0.00;0.00;;;;;;;;;;4968486;28;20042;-62
2020/12/26 06:45:32;;;;;;;0.08;0.08;;;;;;;;;;4965680;28;20185;-62
2020/12/26 06:47:58;;;;;;;0.00;0.00;;;;;;;;;;4969101;28;20037;-63
2020/12/26 06:50:27;;;;;;;0.00;0.00;;;;;;;;;;4968299;28;20382;-62
2020/12/26 06:52:53;;;;;;;0.00;0.00;;;;;;;;;;4965246;28;20659;-63
2020/12/26 06:55:40;;;;;;;0.00;0.00;;;;;;;;;;4965693;28;20541;-62
2020/12/26 06:58:11;;;;;;;1.45;0.65;;;;;;;;;;4963605;28;21566;-61
2020/12/26 07:00:39;;;;;;;1.85;0.65;;;;;;;;;;4971051;28;20053;-61
2020/12/26 07:03:22;;;;;;;0.00;0.00;;;;;;;;;;4964945;28;20030;-61
2020/12/26 07:05:53;;;;;;;0.28;0.28;;;;;;;;;;4969686;28;21989;-63
2020/12/26 07:08:22;;;;;;;0.00;0.00;;;;;;;;;;4968471;28;20509;-63
2020/12/26 07:10:47;;;;;;;0.00;0.00;;;;;;;;;;4947709;28;20288;-63
2020/12/26 07:13:32;;;;;;;0.00;0.00;;;;;;;;;;4967163;28;20697;-62
2020/12/26 07:16:00;;;;;;;0.00;0.00;;;;;;;;;;4944928;28;20117;-62
2020/12/26 07:18:29;;;;;;;0.00;0.00;;;;;;;;;;4955414;28;20058;-62
2020/12/26 07:20:57;;;;;;;0.00;0.00;;;;;;;;;;4966018;28;20034;-61
2020/12/26 07:23:23;;;;;;;0.00;0.00;;;;;;;;;;4934489;28;20132;-62
2020/12/26 07:25:50;;;;;;;0.00;0.00;;;;;;;;;;4969248;28;20083;-62
2020/12/26 07:28:20;;;;;;;0.00;0.00;;;;;;;;;;4938540;28;20235;-62
2020/12/26 07:30:50;;;;;;;0.00;0.00;;;;;;;;;;4951482;28;20481;-62
2020/12/26 07:33:16;;;;;;;0.00;0.00;;;;;;;;;;4925983;28;20057;-62
2020/12/26 07:35:42;;;;;;;0.00;0.00;;;;;;;;;;4965546;28;20026;-61
2020/12/26 07:38:18;;;;;;;0.00;0.00;;;;;;;;;;4947802;28;20137;-61
2020/12/26 07:40:47;;;;;;;0.00;0.00;;;;;;;;;;4967790;28;20038;-61
2020/12/26 07:43:13;;;;;;;0.35;0.35;;;;;;;;;;4949401;28;20105;-62
2020/12/26 07:45:40;;;;;;;0.00;0.00;;;;;;;;;;4965618;28;20473;-61
2020/12/26 07:48:06;;;;;;;0.20;0.20;;;;;;;;;;4966092;28;20517;-62
2020/12/26 07:50:35;;;;;;;0.00;0.00;;;;;;;;;;4948530;28;20034;-62
2020/12/26 07:53:07;;;;;;;0.00;0.00;;;;;;;;;;4948637;28;20450;-62
2020/12/26 07:55:38;;;;;;;0.00;0.00;;;;;;;;;;4966041;28;20457;-61
2020/12/26 07:58:07;;;;;;;0.00;0.00;;;;;;;;;;4964806;28;20370;-62
2020/12/26 08:00:36;;;;;;;0.03;0.03;;;;;;;;;;4966780;28;20041;-63
2020/12/26 08:03:05;;;;;;;0.00;0.00;;;;;;;;;;4962918;28;20030;-62
2020/12/26 08:05:34;;;;;;;0.00;0.00;;;;;;;;;;4964109;28;20038;-61
2020/12/26 08:08:11;;;;;;;0.00;0.00;;;;;;;;;;4962425;28;20029;-62
2020/12/26 08:10:37;;;;;;;0.00;0.00;;;;;;;;;;4965604;28;20406;-61
2020/12/26 08:13:07;;;;;;;0.00;0.00;;;;;;;;;;4964835;28;20026;-61
2020/12/26 08:15:32;;;;;;;0.05;0.05;;;;;;;;;;4965045;28;20068;-61
2020/12/26 08:18:02;;;;;;;0.00;0.00;;;;;;;;;;4948456;28;20109;-61
2020/12/26 08:20:31;;;;;;;0.00;0.00;;;;;;;;;;4966007;28;20057;-60
2020/12/26 08:22:59;;;;;;;0.00;0.00;;;;;;;;;;4966136;28;20171;-61
2020/12/26 08:25:29;;;;;;;0.00;0.00;;;;;;;;;;4961950;28;20034;-61
2020/12/26 08:27:56;;;;;;;0.08;0.08;;;;;;;;;;4961969;28;20416;-61
2020/12/26 08:30:29;;;;;;;0.00;0.00;;;;;;;;;;4962233;28;20131;-61
2020/12/26 08:33:09;;;;;;;0.00;0.00;;;;;;;;;;4960604;28;20595;-61
2020/12/26 08:35:49;;;;;;;0.00;0.00;;;;;;;;;;4958828;28;20073;-61
2020/12/26 08:38:38;;;;;;;0.00;0.00;;;;;;;;;;4964507;28;20044;-62
2020/12/26 08:41:04;;;;;;;0.00;0.00;;;;;;;;;;4949193;28;20069;-61
2020/12/26 08:43:36;;;;;;;0.00;0.00;;;;;;;;;;4963728;28;20074;-61
2020/12/26 08:46:11;;;;;;;0.00;0.00;;;;;;;;;;4962036;28;20031;-61
2020/12/26 08:48:44;;;;;;;0.10;0.10;;;;;;;;;;4964760;28;20033;-62
2020/12/26 08:51:35;;;;;;;0.00;0.00;;;;;;;;;;4965528;28;20114;-60
2020/12/26 08:54:03;;;;;;;0.00;0.00;;;;;;;;;;4959265;28;20073;-63
2020/12/26 08:56:34;;;;;;;0.10;0.10;;;;;;;;;;4964600;28;20165;-61
2020/12/26 08:59:02;;;;;;;0.00;0.00;;;;;;;;;;4966979;28;20030;-61
2020/12/26 09:01:27;;;;;;;0.00;0.00;;;;;;;;;;4948364;28;20042;-61
2020/12/26 09:03:58;;;;;;;0.00;0.00;;;;;;;;;;4964108;28;20047;-61
2020/12/26 09:06:34;;;;;;;0.00;0.00;;;;;;;;;;4948992;28;20038;-62
2020/12/26 09:09:22;;;;;;;0.00;0.00;;;;;;;;;;4964439;28;20430;-62
2020/12/26 09:11:59;;;;;;;0.00;0.00;;;;;;;;;;4960107;28;20454;-62
2020/12/26 09:14:26;;;;;;;0.00;0.00;;;;;;;;;;4964823;28;20173;-61
2020/12/26 09:16:57;;;;;;;0.00;0.00;;;;;;;;;;4961949;28;20057;-61
2020/12/26 09:19:23;;;;;;;0.00;0.00;;;;;;;;;;4969183;28;20079;-62
2020/12/26 09:21:53;;;;;;;0.00;0.00;;;;;;;;;;4966655;28;20124;-61
2020/12/26 09:24:22;;;;;;;0.20;0.20;;;;;;;;;;4951219;28;20038;-62
2020/12/26 09:26:49;;;;;;;0.00;0.00;;;;;;;;;;4966666;28;20080;-62
2020/12/26 09:29:27;;;;;;;0.00;0.00;;;;;;;;;;4951685;28;20038;-61
2020/12/26 09:31:55;;;;;;;0.00;0.00;;;;;;;;;;4965858;28;20038;-61
2020/12/26 09:34:25;;;;;;;0.00;0.00;;;;;;;;;;4965664;28;20307;-63
2020/12/26 09:37:07;;;;;;;0.00;0.00;;;;;;;;;;4964424;28;20030;-62
2020/12/26 09:39:36;;;;;;;0.00;0.00;;;;;;;;;;4965656;28;20034;-63
2020/12/26 09:42:06;;;;;;;0.75;0.75;;;;;;;;;;4965688;28;20031;-62
2020/12/26 09:44:36;;;;;;;0.00;0.00;;;;;;;;;;4952770;28;20498;-61
2020/12/26 09:47:02;;;;;;;0.00;0.00;;;;;;;;;;4967515;28;20036;-61
2020/12/26 09:49:31;;;;;;;0.00;0.00;;;;;;;;;;4966105;28;20057;-61
2020/12/26 09:52:01;;;;;;;0.00;0.00;;;;;;;;;;4964131;28;21297;-61
2020/12/26 09:54:28;;;;;;;0.00;0.00;;;;;;;;;;4968417;28;21650;-62
2020/12/26 09:56:54;;;;;;;0.00;0.00;;;;;;;;;;4946457;28;20041;-62
2020/12/26 09:59:22;;;;;;;0.00;0.00;;;;;;;;;;4969961;28;20045;-62
2020/12/26 10:01:48;;;;;;;0.00;0.00;;;;;;;;;;4968870;28;20069;-62
2020/12/26 10:04:13;;;;;;;0.00;0.00;;;;;;;;;;4965150;28;20033;-63
2020/12/26 10:06:39;;;;;;;0.00;0.00;;;;;;;;;;4969036;28;20128;-63
2020/12/26 10:09:05;;;;;;;0.00;0.00;;;;;;;;;;4969908;28;20342;-62
2020/12/26 10:11:30;;;;;;;0.20;0.20;;;;;;;;;;4965932;28;20038;-61
2020/12/26 10:13:56;;;;;;;0.00;0.00;;;;;;;;;;4962016;28;20064;-62
2020/12/26 10:16:24;;;;;;;1.75;0.22;;;;;;;;;;4964842;28;20030;-63
2020/12/26 10:18:52;;;;;;;0.00;0.00;;;;;;;;;;4953728;28;20034;-62
2020/12/26 10:21:20;;;;;;;0.00;0.00;;;;;;;;;;4964920;28;20084;-65
2020/12/26 10:23:48;;;;;;;0.00;0.00;;;;;;;;;;4934693;28;20038;-63
2020/12/26 10:26:14;;;;;;;0.00;0.00;;;;;;;;;;4967339;28;20161;-63
2020/12/26 10:28:39;;;;;;;0.00;0.00;;;;;;;;;;4951098;28;20026;-63
2020/12/26 10:31:05;;;;;;;0.00;0.00;;;;;;;;;;4967398;28;20038;-63
2020/12/26 10:33:30;;;;;;;0.00;0.00;;;;;;;;;;4966054;28;20041;-63
2020/12/26 10:35:56;;;;;;;0.13;0.08;;;;;;;;;;4962802;28;20027;-63
2020/12/26 10:38:21;;;;;;;0.00;0.00;;;;;;;;;;4946847;28;20041;-64
2020/12/26 10:40:50;;;;;;;0.00;0.00;;;;;;;;;;4967387;28;20030;-64
2020/12/26 10:43:18;;;;;;;0.00;0.00;;;;;;;;;;4934924;28;20562;-65
2020/12/26 10:45:43;;;;;;;0.00;0.00;;;;;;;;;;4967064;28;20109;-63
2020/12/26 10:48:11;;;;;;;0.00;0.00;;;;;;;;;;4964851;28;20231;-62
2020/12/26 10:50:37;;;;;;;0.00;0.00;;;;;;;;;;4964466;28;20432;-64
2020/12/26 10:53:05;;;;;;;0.00;0.00;;;;;;;;;;4962174;28;20393;-64
2020/12/26 10:55:30;;;;;;;0.00;0.00;;;;;;;;;;4964338;28;20057;-65
2020/12/26 10:57:58;;;;;;;0.00;0.00;;;;;;;;;;4952898;28;20046;-64
2020/12/26 11:00:24;;;;;;;0.00;0.00;;;;;;;;;;4951667;28;20097;-65
2020/12/26 11:02:50;;;;;;;0.00;0.00;;;;;;;;;;4966339;28;20113;-63
2020/12/26 11:05:18;;;;;;;0.00;0.00;;;;;;;;;;4967543;28;20038;-65
2020/12/26 11:07:46;;;;;;;0.05;0.05;;;;;;;;;;4949913;28;20453;-64
2020/12/26 11:10:14;;;;;;;0.00;0.00;;;;;;;;;;4965821;28;20893;-65
2020/12/26 11:12:39;;;;;;;0.00;0.00;;;;;;;;;;4966589;28;20326;-64
2020/12/26 11:15:07;;;;;;;0.00;0.00;;;;;;;;;;4965799;28;20058;-64
2020/12/26 11:17:32;;;;;;;0.00;0.00;;;;;;;;;;4965230;28;20117;-65
2020/12/26 11:19:59;;;;;;;1.75;1.65;;;;;;;;;;4964014;28;20034;-64
2020/12/26 11:22:26;;;;;;;0.00;0.00;;;;;;;;;;4964659;28;20105;-65
2020/12/26 11:24:57;;;;;;;0.00;0.00;;;;;;;;;;4950939;28;20125;-65
2020/12/26 11:27:22;;;;;;;0.00;0.00;;;;;;;;;;4951818;28;20128;-65
2020/12/26 11:29:48;;;;;;;0.00;0.00;;;;;;;;;;4963303;28;20414;-65
2020/12/26 11:32:14;;;;;;;0.00;0.00;;;;;;;;;;4963810;28;20039;-66
2020/12/26 11:34:39;;;;;;;0.38;0.38;;;;;;;;;;4944357;28;20041;-66
2020/12/26 11:37:08;;;;;;;0.00;0.00;;;;;;;;;;4951495;28;20739;-66
2020/12/26 11:39:38;;;;;;;0.00;0.00;;;;;;;;;;4951402;28;20032;-66
2020/12/26 11:42:06;;;;;;;0.00;0.00;;;;;;;;;;4965481;28;20048;-65
2020/12/26 11:44:31;;;;;;;0.00;0.00;;;;;;;;;;4963783;28;20405;-63
2020/12/26 11:47:01;;;;;;;0.00;0.00;;;;;;;;;;4963082;28;20124;-63
2020/12/26 11:49:28;;;;;;;0.00;0.00;;;;;;;;;;4963565;28;21706;-63
2020/12/26 11:51:57;;;;;;;0.90;0.90;;;;;;;;;;4962698;28;20033;-64
2020/12/26 11:54:23;;;;;;;0.00;0.00;;;;;;;;;;4965127;28;20058;-64
2020/12/26 11:56:52;;;;;;;0.00;0.00;;;;;;;;;;4963833;28;20080;-64
2020/12/26 11:59:17;;;;;;;0.00;0.00;;;;;;;;;;4951747;28;20360;-64
2020/12/26 12:01:46;;;;;;;0.00;0.00;;;;;;;;;;4962551;28;20102;-66
2020/12/26 12:04:12;;;;;;;0.03;0.03;;;;;;;;;;4963632;28;20727;-64
2020/12/26 12:06:39;;;;;;;0.00;0.00;;;;;;;;;;4964716;28;20038;-65
2020/12/26 12:09:07;;;;;;;0.10;0.10;;;;;;;;;;4964761;28;20361;-66
2020/12/26 12:11:35;;;;;;;0.25;0.25;;;;;;;;;;4942762;28;20042;-65
2020/12/26 12:14:03;;;;;;;0.00;0.00;;;;;;;;;;4946593;28;20165;-66
2020/12/26 12:16:31;;;;;;;0.00;0.00;;;;;;;;;;4965193;28;22000;-66
2020/12/26 12:18:59;;;;;;;0.00;0.00;;;;;;;;;;4965671;28;20132;-66
2020/12/26 12:21:24;;;;;;;0.00;0.00;;;;;;;;;;4949714;28;20086;-66
2020/12/26 12:23:54;;;;;;;0.10;0.10;;;;;;;;;;4949993;28;20039;-66
2020/12/26 12:26:21;;;;;;;0.00;0.00;;;;;;;;;;4950518;28;20117;-67
2020/12/26 12:28:53;;;;;;;0.00;0.00;;;;;;;;;;4951258;28;20048;-67
2020/12/26 12:31:18;;;;;;;0.65;0.65;;;;;;;;;;4949613;28;20029;-63
2020/12/26 12:33:44;;;;;;;0.00;0.00;;;;;;;;;;4967575;28;20065;-67
2020/12/26 12:36:12;;;;;;;0.00;0.00;;;;;;;;;;4963364;28;20045;-63
2020/12/26 12:38:38;;;;;;;0.22;0.22;;;;;;;;;;4965179;28;20042;-64
2020/12/26 12:41:05;;;;;;;4.80;0.40;;;;;;;;;;4947278;28;20077;-64
2020/12/26 12:43:36;;;;;;;0.17;0.17;;;;;;;;;;4949149;28;20276;-64
2020/12/26 12:46:01;;;;;;;0.00;0.00;;;;;;;;;;4931681;28;20110;-64
2020/12/26 12:48:29;;;;;;;0.47;0.47;;;;;;;;;;4951738;28;20052;-64
2020/12/26 12:50:54;;;;;;;0.00;0.00;;;;;;;;;;4950740;28;20049;-65
2020/12/26 12:53:22;;;;;;;0.00;0.00;;;;;;;;;;4968912;28;20026;-66
2020/12/26 12:55:48;;;;;;;0.00;0.00;;;;;;;;;;4972602;28;20034;-64
2020/12/26 12:58:14;;;;;;;0.22;0.22;;;;;;;;;;4968775;28;20037;-64
2020/12/26 13:00:44;;;;;;;0.00;0.00;;;;;;;;;;4971319;28;20053;-65
2020/12/26 13:03:09;;;;;;;0.15;0.15;;;;;;;;;;4965207;28;20035;-64
2020/12/26 13:05:38;;;;;;;0.00;0.00;;;;;;;;;;4952630;28;20099;-64
2020/12/26 13:08:09;;;;;;;0.13;0.13;;;;;;;;;;4971838;28;20034;-66
2020/12/26 13:10:39;;;;;;;0.00;0.00;;;;;;;;;;4969111;28;20263;-63
2020/12/26 13:13:06;;;;;;;0.00;0.00;;;;;;;;;;4968617;28;20050;-67
2020/12/26 13:15:34;;;;;;;0.00;0.00;;;;;;;;;;4968650;28;20033;-64
2020/12/26 13:18:05;;;;;;;0.10;0.10;;;;;;;;;;4955302;28;20069;-65
2020/12/26 13:20:33;;;;;;;0.00;0.00;;;;;;;;;;4970822;28;20034;-65
2020/12/26 13:23:01;;;;;;;0.10;0.10;;;;;;;;;;4970925;28;20064;-67
2020/12/26 13:25:26;;;;;;;0.00;0.00;;;;;;;;;;4953445;28;20209;-66
2020/12/26 13:27:54;;;;;;;2.08;0.82;;;;;;;;;;4945308;28;20716;-64
2020/12/26 13:30:21;;;;;;;0.00;0.00;;;;;;;;;;4951571;28;20037;-64
2020/12/26 13:32:47;;;;;;;0.10;0.10;;;;;;;;;;4950333;28;20079;-66
2020/12/26 13:35:12;;;;;;;0.00;0.00;;;;;;;;;;4968131;28;20258;-66
2020/12/26 13:37:38;;;;;;;0.20;0.20;;;;;;;;;;4966983;28;20037;-65
2020/12/26 13:40:06;;;;;;;0.10;0.10;;;;;;;;;;4954349;28;20606;-66
2020/12/26 13:42:32;;;;;;;0.17;0.17;;;;;;;;;;4968583;28;20041;-65
2020/12/26 13:44:57;;;;;;;0.00;0.00;;;;;;;;;;4969736;28;20476;-65
2020/12/26 13:47:25;;;;;;;0.00;0.00;;;;;;;;;;4950309;28;20061;-65
2020/12/26 13:49:51;;;;;;;0.00;0.00;;;;;;;;;;4969545;28;20150;-66
2020/12/26 13:52:18;;;;;;;0.55;0.52;;;;;;;;;;4968876;28;20411;-64
2020/12/26 13:54:44;;;;;;;0.45;0.25;;;;;;;;;;4969731;28;20269;-67
2020/12/26 13:57:11;;;;;;;0.00;0.00;;;;;;;;;;4969954;28;20143;-64
2020/12/26 13:59:44;;;;;;;0.00;0.00;;;;;;;;;;4969187;28;20057;-63
2020/12/26 14:02:10;;;;;;;0.10;0.10;;;;;;;;;;4948860;28;20609;-65
2020/12/26 14:04:35;;;;;;;0.08;0.08;;;;;;;;;;4970972;28;20042;-66
2020/12/26 14:07:07;;;;;;;0.17;0.17;;;;;;;;;;4936066;28;20030;-64
2020/12/26 14:09:33;;;;;;;0.32;0.32;;;;;;;;;;4966884;28;20270;-64
2020/12/26 14:11:58;;;;;;;0.00;0.00;;;;;;;;;;4968298;28;20544;-66
2020/12/26 14:14:26;;;;;;;3.40;1.55;;;;;;;;;;4945263;28;20203;-65
2020/12/26 14:16:54;;;;;;;0.88;0.88;;;;;;;;;;4966168;28;20145;-66
2020/12/26 14:19:20;;;;;;;0.05;0.05;;;;;;;;;;4953268;28;20046;-64
2020/12/26 14:21:45;;;;;;;0.00;0.00;;;;;;;;;;4967421;28;20048;-64
2020/12/26 14:24:13;;;;;;;0.15;0.15;;;;;;;;;;4969154;28;20042;-66
2020/12/26 14:26:40;;;;;;;0.00;0.00;;;;;;;;;;4969297;28;20311;-65
2020/12/26 14:29:08;;;;;;;0.22;0.22;;;;;;;;;;4966954;28;21753;-63
2020/12/26 14:31:34;;;;;;;0.00;0.00;;;;;;;;;;4956398;28;20042;-65
2020/12/26 14:34:01;;;;;;;0.00;0.00;;;;;;;;;;4965834;28;21745;-64
2020/12/26 14:36:27;;;;;;;0.10;0.10;;;;;;;;;;4965515;28;20481;-65
2020/12/26 14:38:53;;;;;;;0.17;0.17;;;;;;;;;;4963575;28;20124;-63
2020/12/26 14:41:18;;;;;;;0.00;0.00;;;;;;;;;;4947700;28;20335;-64
2020/12/26 14:43:44;;;;;;;0.00;0.00;;;;;;;;;;4948109;28;20481;-65
2020/12/26 14:46:14;;;;;;;0.00;0.00;;;;;;;;;;4949463;28;20034;-64
2020/12/26 14:48:42;;;;;;;1.25;0.43;;;;;;;;;;4969436;28;20550;-62
2020/12/26 14:51:20;;;;;;;0.20;0.20;;;;;;;;;;4968981;28;20026;-66